createdAt,value
2022-09-11T00:00:21.587Z,9.00
2022-09-11T00:02:49.407Z,11.50
2022-09-11T00:05:17.081Z,12.50
2022-09-11T00:07:44.699Z,7.50
2022-09-11T00:10:12.326Z,12.00
2022-09-11T00:12:39.891Z,7.50
2022-09-11T00:15:07.684Z,9.25
2022-09-11T00:17:35.597Z,9.50
2022-09-11T00:20:03.258Z,4.00
2022-09-11T00:22:31.041Z,4.50
2022-09-11T00:24:59.540Z,9.00
2022-09-11T00:27:27.331Z,9.50
2022-09-11T00:29:54.980Z,10.00
2022-09-11T00:32:22.894Z,7.50
2022-09-11T00:34:50.436Z,12.75
2022-09-11T00:37:18.131Z,7.75
2022-09-11T00:39:46.458Z,5.00
2022-09-11T00:42:15.114Z,5.00
2022-09-11T00:44:43.241Z,9.00
2022-09-11T00:47:11.024Z,10.00
2022-09-11T00:49:38.683Z,8.50
2022-09-11T00:52:08.653Z,13.25
2022-09-11T00:54:36.353Z,12.00
2022-09-11T00:57:04.326Z,4.25
2022-09-11T00:59:32.026Z,0.50
2022-09-11T01:02:06.577Z,9.75
2022-09-11T01:04:34.719Z,9.00
2022-09-11T01:07:02.368Z,12.50
2022-09-11T01:09:29.993Z,9.00
2022-09-11T01:11:57.909Z,8.00
2022-09-11T01:14:25.479Z,9.00
2022-09-11T01:16:53.407Z,10.00
2022-09-11T01:19:20.975Z,7.00
2022-09-11T01:21:52.490Z,9.00
2022-09-11T01:24:20.072Z,11.50
2022-09-11T01:26:47.649Z,9.00
2022-09-11T01:29:16.176Z,6.75
2022-09-11T01:31:45.997Z,9.00
2022-09-11T01:34:13.719Z,10.50
2022-09-11T01:36:41.460Z,0.00
2022-09-11T01:39:09.836Z,10.00
2022-09-11T01:41:37.408Z,10.00
2022-09-11T01:44:05.081Z,9.00
2022-09-11T01:46:34.886Z,12.00
2022-09-11T01:49:02.524Z,13.00
2022-09-11T01:51:30.076Z,10.50
2022-09-11T01:53:59.488Z,11.50
2022-09-11T01:56:27.159Z,10.00
2022-09-11T01:58:56.213Z,8.50
2022-09-11T02:01:23.899Z,9.50
2022-09-11T02:03:52.511Z,10.75
2022-09-11T02:06:20.117Z,10.00
2022-09-11T02:08:49.310Z,12.00
2022-09-11T02:11:16.965Z,12.50
2022-09-11T02:13:46.989Z,10.50
2022-09-11T02:16:14.720Z,6.00
2022-09-11T02:18:42.396Z,10.00
2022-09-11T02:21:10.409Z,11.50
2022-09-11T02:23:40.030Z,12.00
2022-09-11T02:26:07.695Z,9.75
2022-09-11T02:28:35.523Z,8.50
2022-09-11T02:31:03.639Z,9.00
2022-09-11T02:33:32.637Z,5.50
2022-09-11T02:36:00.296Z,4.00
2022-09-11T02:38:27.935Z,12.50
2022-09-11T02:40:55.597Z,12.00
2022-09-11T02:43:23.884Z,10.75
2022-09-11T02:45:54.476Z,14.00
2022-09-11T02:48:22.288Z,15.25
2022-09-11T02:50:49.868Z,12.50
2022-09-11T02:53:17.783Z,9.25
2022-09-11T02:55:45.361Z,13.50
2022-09-11T02:58:13.350Z,15.25
2022-09-11T03:00:41.131Z,10.00
2022-09-11T03:03:10.141Z,13.50
2022-09-11T03:05:40.389Z,12.25
2022-09-11T03:08:08.390Z,15.25
2022-09-11T03:10:35.961Z,7.00
2022-09-11T03:13:03.942Z,12.75
2022-09-11T03:15:31.670Z,13.50
2022-09-11T03:17:59.293Z,16.25
2022-09-11T03:20:27.043Z,15.50
2022-09-11T03:22:55.205Z,7.00
2022-09-11T03:25:23.842Z,10.50
2022-09-11T03:27:51.758Z,8.00
2022-09-11T03:30:19.355Z,11.00
2022-09-11T03:32:48.248Z,12.50
2022-09-11T03:35:16.763Z,18.00
2022-09-11T03:37:44.497Z,11.00
2022-09-11T03:40:12.354Z,14.00
2022-09-11T03:42:41.402Z,17.00
2022-09-11T03:45:09.073Z,15.00
2022-09-11T03:47:37.538Z,12.50
2022-09-11T03:50:05.234Z,15.50
2022-09-11T03:52:33.160Z,13.50
2022-09-11T03:55:01.188Z,8.75
2022-09-11T03:57:28.819Z,15.00
2022-09-11T03:59:57.151Z,16.00
2022-09-11T04:02:25.101Z,10.00
2022-09-11T04:04:52.759Z,18.25
2022-09-11T04:07:20.964Z,12.00
2022-09-11T04:09:48.581Z,18.00
2022-09-11T04:12:17.497Z,14.75
2022-09-11T04:14:45.193Z,17.25
2022-09-11T04:17:12.777Z,8.50
2022-09-11T04:19:40.511Z,13.50
2022-09-11T04:22:10.544Z,12.25
2022-09-11T04:24:38.133Z,16.00
2022-09-11T04:27:05.820Z,7.00
2022-09-11T04:29:33.869Z,15.00
2022-09-11T04:32:02.283Z,11.50
2022-09-11T04:34:29.979Z,12.75
2022-09-11T04:36:57.699Z,10.00
2022-09-11T04:39:25.339Z,10.00
2022-09-11T04:41:55.519Z,8.00
2022-09-11T04:44:24.352Z,16.50
2022-09-11T04:46:51.939Z,12.50
2022-09-11T04:49:19.614Z,16.75
2022-09-11T04:51:47.284Z,16.00
2022-09-11T04:54:14.866Z,12.00
2022-09-11T04:56:42.541Z,16.50
2022-09-11T04:59:13.471Z,17.00
2022-09-11T05:01:41.101Z,15.00
2022-09-11T05:04:09.696Z,9.50
2022-09-11T05:06:38.073Z,9.75
2022-09-11T05:09:06.091Z,18.00
2022-09-11T05:11:33.742Z,12.00
2022-09-11T05:14:01.677Z,17.75
2022-09-11T05:16:29.631Z,15.25
2022-09-11T05:18:57.307Z,17.00
2022-09-11T05:21:25.126Z,10.00
2022-09-11T05:23:52.771Z,19.00
2022-09-11T05:26:20.535Z,7.50
2022-09-11T05:28:48.140Z,13.00
2022-09-11T05:31:15.868Z,10.50
2022-09-11T05:33:44.526Z,16.75
2022-09-11T05:36:12.281Z,15.25
2022-09-11T05:38:40.276Z,10.50
2022-09-11T05:41:07.949Z,12.25
2022-09-11T05:43:35.988Z,17.25
2022-09-11T05:46:03.683Z,16.00
2022-09-11T05:48:31.361Z,14.25
2022-09-11T05:50:59.749Z,12.25
2022-09-11T05:53:27.790Z,17.50
2022-09-11T05:55:55.417Z,14.00
2022-09-11T05:58:22.982Z,17.00
2022-09-11T06:00:50.698Z,20.50
2022-09-11T06:03:18.968Z,14.50
2022-09-11T06:05:46.663Z,12.00
2022-09-11T06:08:14.374Z,12.50
2022-09-11T06:10:42.017Z,10.50
2022-09-11T06:13:09.945Z,18.00
2022-09-11T06:15:46.673Z,15.50
2022-09-11T06:18:14.775Z,15.25
2022-09-11T06:20:42.668Z,12.50
2022-09-11T06:23:10.651Z,18.50
2022-09-11T06:25:38.438Z,17.00
2022-09-11T06:28:06.185Z,17.00
2022-09-11T06:30:33.778Z,18.00
2022-09-11T06:33:01.802Z,15.00
2022-09-11T06:35:30.186Z,16.00
2022-09-11T06:37:57.770Z,16.00
2022-09-11T06:40:25.543Z,12.50
2022-09-11T06:42:54.375Z,14.50
2022-09-11T06:45:22.141Z,6.00
2022-09-11T06:47:49.714Z,9.00
2022-09-11T06:50:17.416Z,13.00
2022-09-11T06:52:46.065Z,15.75
2022-09-11T06:55:14.700Z,15.25
2022-09-11T06:57:42.710Z,16.00
2022-09-11T07:00:10.445Z,13.00
2022-09-11T07:02:38.876Z,15.75
2022-09-11T07:05:06.530Z,16.25
2022-09-11T07:07:34.827Z,13.00
2022-09-11T07:10:05.277Z,17.00
2022-09-11T07:12:33.280Z,15.00
2022-09-11T07:15:00.958Z,10.00
2022-09-11T07:17:28.593Z,11.50
2022-09-11T07:19:56.323Z,16.50
2022-09-11T07:22:24.223Z,14.00
2022-09-11T07:24:55.360Z,16.75
2022-09-11T07:27:23.075Z,16.25
2022-09-11T07:29:50.788Z,12.00
2022-09-11T07:32:18.709Z,13.00
2022-09-11T07:34:47.707Z,11.00
2022-09-11T07:37:15.520Z,13.00
2022-09-11T07:39:43.205Z,12.00
2022-09-11T07:42:12.243Z,14.25
2022-09-11T07:44:39.857Z,12.00
2022-09-11T07:47:07.555Z,10.00
2022-09-11T07:49:35.135Z,12.25
2022-09-11T07:52:03.843Z,11.50
2022-09-11T07:54:31.513Z,7.00
2022-09-11T07:56:59.230Z,9.25
2022-09-11T07:59:28.065Z,13.40
2022-09-11T08:01:56.754Z,7.50
2022-09-11T08:04:24.776Z,10.50
2022-09-11T08:06:52.420Z,14.00
2022-09-11T08:09:20.532Z,7.00
2022-09-11T08:11:48.907Z,16.50
2022-09-11T08:14:17.793Z,15.60
2022-09-11T08:16:45.565Z,11.00
2022-09-11T08:19:13.243Z,13.40
2022-09-11T08:21:42.198Z,17.60
2022-09-11T08:24:09.831Z,17.50
2022-09-11T08:26:37.463Z,12.40
2022-09-11T08:29:05.335Z,12.00
2022-09-11T08:31:33.892Z,13.00
2022-09-11T08:34:01.869Z,13.20
2022-09-11T08:36:29.815Z,5.80
2022-09-11T08:38:57.421Z,14.20
2022-09-11T08:41:25.101Z,13.00
2022-09-11T08:43:53.157Z,15.80
2022-09-11T08:46:20.884Z,12.80
2022-09-11T08:48:48.684Z,11.40
2022-09-11T08:51:16.343Z,17.60
2022-09-11T08:53:45.852Z,15.00
2022-09-11T08:56:13.715Z,10.80
2022-09-11T08:58:41.325Z,14.00
2022-09-11T09:01:09.086Z,13.40
2022-09-11T09:03:37.053Z,13.00
2022-09-11T09:06:04.702Z,16.20
2022-09-11T09:08:35.442Z,18.00
2022-09-11T09:11:03.141Z,15.80
2022-09-11T09:13:31.603Z,19.00
2022-09-11T09:15:59.231Z,15.80
2022-09-11T09:18:26.937Z,15.40
2022-09-11T09:20:54.548Z,18.00
2022-09-11T09:23:22.551Z,17.00
2022-09-11T09:25:52.879Z,17.60
2022-09-11T09:28:20.562Z,16.40
2022-09-11T09:30:48.306Z,10.20
2022-09-11T09:33:16.531Z,19.80
2022-09-11T09:35:44.365Z,13.60
2022-09-11T09:38:11.959Z,13.60
2022-09-11T09:40:39.588Z,16.80
2022-09-11T09:43:07.558Z,16.40
2022-09-11T09:45:37.733Z,13.40
2022-09-11T09:48:05.970Z,14.60
2022-09-11T09:50:33.725Z,14.20
2022-09-11T09:53:01.477Z,13.40
2022-09-11T09:55:29.167Z,18.00
2022-09-11T09:57:56.997Z,12.20
2022-09-11T10:00:24.721Z,16.00
2022-09-11T10:02:55.241Z,13.00
2022-09-11T10:05:22.871Z,13.60
2022-09-11T10:07:50.564Z,11.20
2022-09-11T10:10:18.412Z,14.20
2022-09-11T10:12:46.050Z,13.20
2022-09-11T10:15:13.747Z,12.20
2022-09-11T10:17:41.352Z,5.60
2022-09-11T10:20:09.161Z,12.00
2022-09-11T10:22:36.807Z,13.40
2022-09-11T10:25:04.581Z,14.80
2022-09-11T10:27:32.854Z,12.20
2022-09-11T10:30:00.762Z,12.00
2022-09-11T10:32:29.123Z,12.00
2022-09-11T10:34:56.860Z,12.00
2022-09-11T10:37:24.832Z,12.20
2022-09-11T10:39:52.604Z,14.00
2022-09-11T10:42:23.256Z,13.00
2022-09-11T10:44:50.923Z,10.60
2022-09-11T10:47:18.698Z,12.40
2022-09-11T10:49:47.358Z,9.20
2022-09-11T10:52:15.313Z,11.60
2022-09-11T10:54:44.681Z,13.20
2022-09-11T10:57:13.483Z,11.60
2022-09-11T10:59:41.662Z,12.00
2022-09-11T11:02:10.579Z,16.20
2022-09-11T11:04:38.304Z,12.20
2022-09-11T11:07:05.947Z,15.00
2022-09-11T11:09:33.678Z,12.40
2022-09-11T11:12:01.654Z,9.00
2022-09-11T11:14:29.488Z,8.80
2022-09-11T11:16:57.153Z,14.00
2022-09-11T11:19:24.883Z,12.20
2022-09-11T11:21:52.590Z,12.60
2022-09-11T11:24:21.649Z,10.40
2022-09-11T11:26:49.393Z,12.20
2022-09-11T11:29:17.098Z,14.20
2022-09-11T11:31:44.859Z,11.60
2022-09-11T11:34:12.850Z,11.60
2022-09-11T11:36:40.629Z,12.20
2022-09-11T11:39:08.934Z,13.60
2022-09-11T11:41:36.698Z,13.00
2022-09-11T11:44:04.657Z,16.00
2022-09-11T11:46:33.724Z,13.80
2022-09-11T11:49:01.308Z,15.00
2022-09-11T11:51:29.028Z,13.40
2022-09-11T11:53:57.044Z,12.80
2022-09-11T11:56:24.740Z,13.60
2022-09-11T11:58:52.455Z,14.00
2022-09-11T12:01:20.450Z,14.20
2022-09-11T12:03:48.601Z,16.20
2022-09-11T12:06:16.443Z,13.40
2022-09-11T12:08:44.863Z,15.40
2022-09-11T12:11:13.050Z,18.80
2022-09-11T12:13:41.049Z,14.60
2022-09-11T12:16:11.373Z,16.40
2022-09-11T12:18:39.286Z,14.80
2022-09-11T12:21:07.299Z,15.00
2022-09-11T12:23:35.005Z,17.20
2022-09-11T12:26:02.756Z,12.80
2022-09-11T12:28:30.498Z,12.00
2022-09-11T12:30:58.302Z,16.40
2022-09-11T12:33:26.292Z,13.00
2022-09-11T12:35:54.194Z,15.60
2022-09-11T12:38:21.932Z,9.00
2022-09-11T12:40:49.789Z,13.80
2022-09-11T12:43:18.996Z,9.80
2022-09-11T12:45:48.561Z,12.00
2022-09-11T12:48:16.704Z,9.00
2022-09-11T12:50:44.391Z,12.60
2022-09-11T12:53:13.278Z,12.00
2022-09-11T12:55:41.037Z,13.20
2022-09-11T12:58:08.656Z,12.20
2022-09-11T13:00:36.451Z,13.00
2022-09-11T13:03:04.446Z,14.80
2022-09-11T13:05:34.767Z,12.20
2022-09-11T13:08:04.450Z,12.60
2022-09-11T13:10:33.591Z,9.00
2022-09-11T13:13:02.772Z,13.80
2022-09-11T13:15:30.522Z,12.40
2022-09-11T13:17:58.207Z,8.00
2022-09-11T13:20:25.800Z,11.00
2022-09-11T13:23:04.083Z,12.00
2022-09-11T13:25:32.180Z,11.00
2022-09-11T13:27:59.800Z,11.20
2022-09-11T13:30:27.750Z,12.00
2022-09-11T13:33:14.506Z,11.20
2022-09-11T13:35:42.199Z,12.40
2022-09-11T13:38:10.203Z,7.20
2022-09-11T13:40:37.900Z,13.20
2022-09-11T13:43:05.661Z,8.20
2022-09-11T13:48:56.496Z,7.20
2022-09-11T13:51:24.246Z,12.00
2022-09-11T13:53:51.996Z,13.60
2022-09-11T13:56:21.155Z,10.00
2022-09-11T13:58:53.336Z,14.40
2022-09-11T14:01:21.480Z,11.80
2022-09-11T14:03:58.738Z,9.00
2022-09-11T14:06:26.479Z,11.80
2022-09-11T14:08:54.525Z,9.40
2022-09-11T14:11:22.293Z,9.20
2022-09-11T14:13:50.063Z,10.60
2022-09-11T14:16:17.935Z,8.80
2022-09-11T14:18:46.411Z,9.80
2022-09-11T14:21:14.521Z,10.20
2022-09-11T14:23:43.173Z,5.00
2022-09-11T14:26:10.969Z,9.80
2022-09-11T14:28:38.649Z,9.60
2022-09-11T14:31:06.911Z,7.60
2022-09-11T14:33:47.432Z,9.20
2022-09-11T14:36:22.109Z,10.40
2022-09-11T14:38:50.340Z,7.40
2022-09-11T14:41:17.897Z,8.00
2022-09-11T14:43:48.914Z,8.00
2022-09-11T14:46:17.119Z,7.80
2022-09-11T14:48:45.036Z,8.00
2022-09-11T14:51:13.688Z,8.00
2022-09-11T14:53:43.649Z,8.00
2022-09-11T14:56:11.726Z,6.20
2022-09-11T14:58:39.390Z,6.60
2022-09-11T15:01:07.323Z,9.60
2022-09-11T15:03:35.098Z,8.60
2022-09-11T15:06:02.844Z,9.00
2022-09-11T15:08:30.442Z,7.00
2022-09-11T15:10:57.963Z,8.20
2022-09-11T15:13:26.110Z,6.40
2022-09-11T15:15:53.758Z,7.00
2022-09-11T15:18:22.053Z,6.80
2022-09-11T15:20:49.670Z,7.00
2022-09-11T15:23:17.726Z,6.20
2022-09-11T15:25:45.557Z,3.80
2022-09-11T15:28:13.269Z,4.00
2022-09-11T15:30:41.736Z,5.40
2022-09-11T15:33:09.271Z,6.00
2022-09-11T15:35:36.935Z,8.00
2022-09-11T15:38:05.667Z,8.80
2022-09-11T15:40:33.763Z,8.20
2022-09-11T15:43:01.351Z,6.20
2022-09-11T15:45:28.966Z,5.40
2022-09-11T15:47:56.536Z,5.80
2022-09-11T15:50:28.853Z,7.00
2022-09-11T15:52:56.451Z,5.20
2022-09-11T15:55:25.281Z,4.00
2022-09-11T15:57:52.966Z,5.20
2022-09-11T16:00:20.502Z,5.00
2022-09-11T16:02:49.558Z,5.60
2022-09-11T16:05:17.116Z,4.20
2022-09-11T16:07:44.718Z,7.20
2022-09-11T16:10:12.271Z,5.80
2022-09-11T16:12:39.877Z,7.00
2022-09-11T16:15:07.745Z,6.00
2022-09-11T16:17:35.379Z,6.00
2022-09-11T16:20:03.060Z,6.80
2022-09-11T16:22:32.017Z,5.40
2022-09-11T16:25:00.361Z,4.20
2022-09-11T16:27:28.298Z,6.00
2022-09-11T16:32:43.694Z,5.00
2022-09-11T16:35:13.449Z,4.40
2022-09-11T16:37:41.589Z,6.00
2022-09-11T16:40:09.773Z,6.00
2022-09-11T16:42:37.611Z,5.40
2022-09-11T16:45:05.521Z,5.20
2022-09-11T16:47:33.569Z,4.00
2022-09-11T16:50:07.330Z,3.60
2022-09-11T16:52:35.904Z,6.00
2022-09-11T16:55:03.504Z,5.00
2022-09-11T16:57:31.071Z,7.40
2022-09-11T16:59:58.837Z,7.60
2022-09-11T17:02:26.946Z,6.40
2022-09-11T17:04:54.542Z,5.00
2022-09-11T17:07:22.198Z,6.40
2022-09-11T17:09:49.776Z,7.00
2022-09-11T17:12:17.796Z,4.40
2022-09-11T17:14:45.718Z,3.60
2022-09-11T17:17:13.554Z,2.40
2022-09-11T17:19:41.136Z,5.00
2022-09-11T17:22:10.707Z,7.00
2022-09-11T17:24:38.911Z,4.20
2022-09-11T17:27:06.579Z,5.00
2022-09-11T17:29:35.239Z,5.00
2022-09-11T17:32:24.124Z,4.40
2022-09-11T17:34:51.161Z,5.00
2022-09-11T17:37:18.787Z,5.40
2022-09-11T17:39:46.391Z,5.00
2022-09-11T17:42:13.975Z,4.60
2022-09-11T17:44:42.470Z,6.20
2022-09-11T17:47:10.000Z,5.00
2022-09-11T17:49:38.800Z,6.20
2022-09-11T17:52:07.170Z,7.00
2022-09-11T17:54:34.888Z,5.80
2022-09-11T17:57:02.468Z,5.20
2022-09-11T17:59:30.099Z,7.00
2022-09-11T18:01:59.162Z,4.40
2022-09-11T18:04:27.133Z,3.40
2022-09-11T18:06:55.203Z,7.80
2022-09-11T18:09:22.825Z,7.00
2022-09-11T18:11:51.063Z,4.00
2022-09-11T18:14:18.629Z,6.40
2022-09-11T18:16:47.340Z,6.00
2022-09-11T18:19:15.002Z,5.60
2022-09-11T18:21:45.558Z,6.20
2022-09-11T18:24:19.776Z,4.40
2022-09-11T18:26:47.663Z,7.00
2022-09-11T18:29:16.732Z,7.40
2022-09-11T18:31:44.342Z,9.00
2022-09-11T18:34:11.971Z,6.20
2022-09-11T18:36:39.532Z,8.20
2022-09-11T18:39:07.255Z,7.00
2022-09-11T18:41:35.063Z,8.60
2022-09-11T18:44:04.116Z,6.00
2022-09-11T18:46:32.183Z,8.20
2022-09-11T18:49:00.308Z,7.00
2022-09-11T18:51:28.590Z,3.80
2022-09-11T18:53:56.651Z,5.20
2022-09-11T18:56:24.171Z,5.80
2022-09-11T18:58:52.462Z,5.60
2022-09-11T19:01:20.503Z,6.00
2022-09-11T19:03:48.289Z,7.00
2022-09-11T19:06:15.803Z,6.00
2022-09-11T19:08:43.392Z,7.00
2022-09-11T19:11:10.977Z,7.00
2022-09-11T19:13:38.733Z,6.00
2022-09-11T19:16:07.249Z,5.60
2022-09-11T19:18:34.772Z,7.80
2022-09-11T19:21:03.896Z,6.50
2022-09-11T19:23:31.620Z,0.00
2022-09-11T19:25:59.441Z,8.00
2022-09-11T19:28:28.635Z,6.00
2022-09-11T19:30:57.249Z,5.50
2022-09-11T19:33:24.866Z,5.50
2022-09-11T19:35:52.421Z,6.00
2022-09-11T19:38:21.238Z,5.00
2022-09-11T19:40:48.982Z,6.25
2022-09-11T19:43:17.536Z,6.50
2022-09-11T19:45:45.938Z,7.00
2022-09-11T19:48:13.464Z,6.25
2022-09-11T19:50:41.025Z,7.00
2022-09-11T19:53:08.616Z,6.00
2022-09-11T19:55:36.416Z,5.50
2022-09-11T19:58:04.770Z,5.00
2022-09-11T20:00:32.754Z,5.50
2022-09-11T20:03:00.486Z,7.00
2022-09-11T20:05:28.033Z,4.00
2022-09-11T20:07:56.116Z,7.00
2022-09-11T20:10:24.410Z,6.00
2022-09-11T20:12:51.981Z,7.00
2022-09-11T20:15:19.510Z,6.75
2022-09-11T20:17:47.180Z,8.00
2022-09-11T20:20:14.834Z,8.00
2022-09-11T20:22:42.894Z,6.00
2022-09-11T20:25:10.348Z,4.00
2022-09-11T20:27:38.098Z,6.00
2022-09-11T20:30:05.937Z,6.25
2022-09-11T20:32:33.495Z,7.00
2022-09-11T20:35:00.987Z,6.00
2022-09-11T20:37:28.899Z,6.00
2022-09-11T20:39:56.486Z,6.00
2022-09-11T20:42:24.018Z,6.25
2022-09-11T20:44:52.424Z,6.75
2022-09-11T20:47:19.936Z,3.00
2022-09-11T20:49:47.427Z,6.00
2022-09-11T20:52:14.943Z,2.00
2022-09-11T20:54:42.459Z,5.00
2022-09-11T20:57:10.217Z,7.00
2022-09-11T20:59:37.871Z,4.00
2022-09-11T21:02:05.436Z,4.75
2022-09-11T21:04:33.032Z,6.75
2022-09-11T21:07:00.730Z,7.00
2022-09-11T21:09:28.249Z,4.00
2022-09-11T21:11:55.711Z,6.00
2022-09-11T21:14:23.225Z,6.00
2022-09-11T21:16:50.721Z,3.00
2022-09-11T21:19:18.410Z,6.50
2022-09-11T21:21:46.151Z,5.00
2022-09-11T21:24:13.659Z,6.00
2022-09-11T21:26:41.219Z,6.00
2022-09-11T21:29:09.051Z,4.50
2022-09-11T21:31:36.675Z,2.50
2022-09-11T21:34:04.210Z,6.00
2022-09-11T21:36:32.417Z,6.50
2022-09-11T21:38:59.989Z,4.00
2022-09-11T21:41:27.454Z,4.00
2022-09-11T21:43:54.977Z,6.25
2022-09-11T21:46:22.482Z,6.00
2022-09-11T21:48:49.991Z,6.00
2022-09-11T21:51:17.789Z,3.50
2022-09-11T21:53:45.374Z,4.00
2022-09-11T21:56:12.938Z,3.00
2022-09-11T21:58:40.472Z,6.00
2022-09-11T22:01:08.662Z,5.50
2022-09-11T22:03:36.241Z,5.50
2022-09-11T22:06:03.786Z,4.00
2022-09-11T22:08:31.404Z,6.00
2022-09-11T22:10:58.882Z,6.00
2022-09-11T22:13:26.700Z,8.00
2022-09-11T22:15:54.219Z,6.00
2022-09-11T22:18:21.725Z,4.00
2022-09-11T22:20:49.239Z,5.00
2022-09-11T22:23:16.914Z,3.75
2022-09-11T22:25:44.389Z,1.00
2022-09-11T22:28:12.128Z,3.50
2022-09-11T22:30:39.589Z,6.50
2022-09-11T22:33:07.083Z,4.00
2022-09-11T22:35:34.966Z,5.00
2022-09-11T22:38:02.460Z,5.00
2022-09-11T22:40:29.962Z,4.00
2022-09-11T22:42:57.466Z,4.00
2022-09-11T22:45:24.972Z,4.00
2022-09-11T22:47:52.464Z,5.00
2022-09-11T22:50:19.971Z,4.50
2022-09-11T22:52:48.496Z,7.00
2022-09-11T22:55:16.314Z,4.00
2022-09-11T22:57:43.841Z,4.50
2022-09-11T23:00:11.603Z,4.00
2022-09-11T23:02:39.072Z,3.75
2022-09-11T23:05:24.193Z,6.25
2022-09-11T23:07:51.752Z,6.00
2022-09-11T23:10:23.748Z,4.00
2022-09-11T23:12:51.440Z,6.00
2022-09-11T23:15:19.351Z,6.00
2022-09-11T23:17:46.974Z,6.00
2022-09-11T23:20:14.460Z,7.00
2022-09-11T23:22:42.107Z,4.00
2022-09-11T23:25:11.188Z,5.00
2022-09-11T23:27:38.716Z,6.00
2022-09-11T23:30:06.167Z,4.75
2022-09-11T23:32:33.776Z,3.50
2022-09-11T23:35:01.569Z,4.00
2022-09-11T23:37:29.137Z,5.00
2022-09-11T23:39:56.629Z,4.00
2022-09-11T23:42:24.168Z,4.00
2022-09-11T23:44:51.657Z,3.25
2022-09-11T23:47:19.118Z,6.00
2022-09-11T23:49:48.037Z,6.00
2022-09-11T23:52:15.530Z,5.50
2022-09-11T23:54:42.986Z,3.00
2022-09-11T23:57:10.555Z,3.00
2022-09-11T23:59:38.320Z,3.75
